sensor_id;sensor_type;location;lat;lon;timestamp;P1;durP1;ratioP1;P2;durP2;ratioP2
7150;SDS011;3617;48.836;9.172;2023-11-21T00:00:31;1.40;;;1.13;;
7150;SDS011;3617;48.836;9.172;2023-11-21T00:24:49;1.43;;;1.00;;
7150;SDS011;3617;48.836;9.172;2023-11-21T00:27:15;1.50;;;1.23;;
7150;SDS011;3617;48.836;9.172;2023-11-21T00:29:41;4.23;;;1.60;;
7150;SDS011;3617;48.836;9.172;2023-11-21T00:32:07;1.27;;;1.07;;
7150;SDS011;3617;48.836;9.172;2023-11-21T00:34:34;1.30;;;1.20;;
7150;SDS011;3617;48.836;9.172;2023-11-21T00:37:00;1.20;;;1.00;;
7150;SDS011;3617;48.836;9.172;2023-11-21T00:39:25;1.27;;;1.17;;
7150;SDS011;3617;48.836;9.172;2023-11-21T00:41:52;1.07;;;1.00;;
7150;SDS011;3617;48.836;9.172;2023-11-21T00:44:18;2.30;;;1.20;;
7150;SDS011;3617;48.836;9.172;2023-11-21T00:46:44;1.70;;;1.00;;
7150;SDS011;3617;48.836;9.172;2023-11-21T00:49:10;1.63;;;1.10;;
7150;SDS011;3617;48.836;9.172;2023-11-21T00:51:36;3.17;;;1.53;;
7150;SDS011;3617;48.836;9.172;2023-11-21T00:54:02;1.23;;;1.07;;
7150;SDS011;3617;48.836;9.172;2023-11-21T00:56:28;1.20;;;1.10;;
7150;SDS011;3617;48.836;9.172;2023-11-21T00:58:54;2.13;;;1.20;;
7150;SDS011;3617;48.836;9.172;2023-11-21T01:01:20;3.50;;;1.20;;
7150;SDS011;3617;48.836;9.172;2023-11-21T01:03:48;1.13;;;1.03;;
7150;SDS011;3617;48.836;9.172;2023-11-21T01:06:14;1.40;;;1.20;;
7150;SDS011;3617;48.836;9.172;2023-11-21T01:08:40;2.07;;;1.03;;
7150;SDS011;3617;48.836;9.172;2023-11-21T01:11:06;0.90;;;0.90;;
7150;SDS011;3617;48.836;9.172;2023-11-21T01:13:37;4.23;;;1.40;;
7150;SDS011;3617;48.836;9.172;2023-11-21T01:16:04;1.47;;;1.30;;
7150;SDS011;3617;48.836;9.172;2023-11-21T01:18:31;1.23;;;1.13;;
7150;SDS011;3617;48.836;9.172;2023-11-21T01:20:57;1.17;;;1.07;;
7150;SDS011;3617;48.836;9.172;2023-11-21T01:23:24;2.67;;;1.37;;
7150;SDS011;3617;48.836;9.172;2023-11-21T01:25:50;1.20;;;1.10;;
7150;SDS011;3617;48.836;9.172;2023-11-21T01:28:16;2.43;;;1.40;;
7150;SDS011;3617;48.836;9.172;2023-11-21T01:30:42;5.17;;;1.20;;
7150;SDS011;3617;48.836;9.172;2023-11-21T01:33:09;3.57;;;1.00;;
7150;SDS011;3617;48.836;9.172;2023-11-21T01:35:35;1.30;;;1.20;;
7150;SDS011;3617;48.836;9.172;2023-11-21T01:38:01;2.10;;;1.23;;
7150;SDS011;3617;48.836;9.172;2023-11-21T01:40:28;2.30;;;1.33;;
7150;SDS011;3617;48.836;9.172;2023-11-21T01:42:55;1.23;;;1.10;;
7150;SDS011;3617;48.836;9.172;2023-11-21T01:45:22;4.73;;;1.00;;
7150;SDS011;3617;48.836;9.172;2023-11-21T01:47:50;0.93;;;0.93;;
7150;SDS011;3617;48.836;9.172;2023-11-21T01:50:16;2.00;;;1.17;;
7150;SDS011;3617;48.836;9.172;2023-11-21T01:52:43;1.40;;;1.10;;
7150;SDS011;3617;48.836;9.172;2023-11-21T01:55:09;1.30;;;1.20;;
7150;SDS011;3617;48.836;9.172;2023-11-21T01:57:37;2.90;;;1.30;;
7150;SDS011;3617;48.836;9.172;2023-11-21T02:00:03;1.93;;;1.03;;
7150;SDS011;3617;48.836;9.172;2023-11-21T02:02:43;2.77;;;1.37;;
7150;SDS011;3617;48.836;9.172;2023-11-21T02:05:13;4.20;;;1.30;;
7150;SDS011;3617;48.836;9.172;2023-11-21T02:07:39;2.37;;;1.43;;
7150;SDS011;3617;48.836;9.172;2023-11-21T02:10:06;1.67;;;1.23;;
7150;SDS011;3617;48.836;9.172;2023-11-21T02:12:33;1.40;;;1.30;;
7150;SDS011;3617;48.836;9.172;2023-11-21T02:15:00;3.63;;;1.07;;
7150;SDS011;3617;48.836;9.172;2023-11-21T02:17:27;1.10;;;1.00;;
7150;SDS011;3617;48.836;9.172;2023-11-21T02:19:53;1.33;;;1.10;;
7150;SDS011;3617;48.836;9.172;2023-11-21T02:22:19;1.70;;;1.10;;
7150;SDS011;3617;48.836;9.172;2023-11-21T02:24:45;1.30;;;1.20;;
7150;SDS011;3617;48.836;9.172;2023-11-21T02:27:12;1.40;;;1.30;;
7150;SDS011;3617;48.836;9.172;2023-11-21T02:29:39;1.30;;;1.20;;
7150;SDS011;3617;48.836;9.172;2023-11-21T02:32:05;1.73;;;1.10;;
7150;SDS011;3617;48.836;9.172;2023-11-21T02:34:32;3.57;;;1.70;;
7150;SDS011;3617;48.836;9.172;2023-11-21T02:36:58;3.50;;;1.10;;
7150;SDS011;3617;48.836;9.172;2023-11-21T02:39:24;1.53;;;1.40;;
7150;SDS011;3617;48.836;9.172;2023-11-21T02:41:50;1.30;;;1.20;;
7150;SDS011;3617;48.836;9.172;2023-11-21T02:44:16;1.10;;;1.00;;
7150;SDS011;3617;48.836;9.172;2023-11-21T02:46:42;2.10;;;1.30;;
7150;SDS011;3617;48.836;9.172;2023-11-21T02:49:08;1.80;;;1.37;;
7150;SDS011;3617;48.836;9.172;2023-11-21T02:51:35;1.53;;;1.43;;
7150;SDS011;3617;48.836;9.172;2023-11-21T02:54:02;1.40;;;1.30;;
7150;SDS011;3617;48.836;9.172;2023-11-21T02:56:31;1.37;;;1.20;;
7150;SDS011;3617;48.836;9.172;2023-11-21T02:58:58;2.00;;;1.30;;
7150;SDS011;3617;48.836;9.172;2023-11-21T03:01:25;1.60;;;1.00;;
7150;SDS011;3617;48.836;9.172;2023-11-21T03:03:51;1.30;;;1.10;;
7150;SDS011;3617;48.836;9.172;2023-11-21T03:06:20;3.63;;;1.87;;
7150;SDS011;3617;48.836;9.172;2023-11-21T03:08:46;2.63;;;1.50;;
7150;SDS011;3617;48.836;9.172;2023-11-21T03:11:12;1.53;;;1.40;;
7150;SDS011;3617;48.836;9.172;2023-11-21T03:13:39;1.07;;;0.97;;
7150;SDS011;3617;48.836;9.172;2023-11-21T03:16:06;1.20;;;1.10;;
7150;SDS011;3617;48.836;9.172;2023-11-21T03:18:33;0.87;;;0.87;;
7150;SDS011;3617;48.836;9.172;2023-11-21T03:20:59;1.30;;;1.20;;
7150;SDS011;3617;48.836;9.172;2023-11-21T03:23:25;1.00;;;0.90;;
7150;SDS011;3617;48.836;9.172;2023-11-21T03:25:51;1.37;;;1.00;;
7150;SDS011;3617;48.836;9.172;2023-11-21T03:28:17;1.10;;;1.03;;
7150;SDS011;3617;48.836;9.172;2023-11-21T03:30:43;1.20;;;0.90;;
7150;SDS011;3617;48.836;9.172;2023-11-21T03:33:09;1.03;;;1.03;;
7150;SDS011;3617;48.836;9.172;2023-11-21T03:35:35;1.13;;;1.00;;
7150;SDS011;3617;48.836;9.172;2023-11-21T03:38:01;1.70;;;1.30;;
7150;SDS011;3617;48.836;9.172;2023-11-21T03:40:27;1.27;;;1.17;;
7150;SDS011;3617;48.836;9.172;2023-11-21T03:42:53;1.43;;;1.17;;
7150;SDS011;3617;48.836;9.172;2023-11-21T03:45:19;1.17;;;0.90;;
7150;SDS011;3617;48.836;9.172;2023-11-21T03:47:45;0.90;;;0.70;;
7150;SDS011;3617;48.836;9.172;2023-11-21T03:50:11;1.00;;;1.00;;
7150;SDS011;3617;48.836;9.172;2023-11-21T03:52:37;1.13;;;1.03;;
7150;SDS011;3617;48.836;9.172;2023-11-21T03:55:04;0.80;;;0.80;;
7150;SDS011;3617;48.836;9.172;2023-11-21T03:57:30;1.27;;;0.90;;
7150;SDS011;3617;48.836;9.172;2023-11-21T03:59:56;2.00;;;0.90;;
7150;SDS011;3617;48.836;9.172;2023-11-21T04:02:22;0.80;;;0.80;;
7150;SDS011;3617;48.836;9.172;2023-11-21T04:04:50;1.10;;;1.00;;
7150;SDS011;3617;48.836;9.172;2023-11-21T04:07:16;1.17;;;0.87;;
7150;SDS011;3617;48.836;9.172;2023-11-21T04:09:42;1.50;;;1.10;;
7150;SDS011;3617;48.836;9.172;2023-11-21T04:12:08;1.17;;;0.90;;
7150;SDS011;3617;48.836;9.172;2023-11-21T04:14:34;4.00;;;0.90;;
7150;SDS011;3617;48.836;9.172;2023-11-21T04:17:00;0.80;;;0.80;;
7150;SDS011;3617;48.836;9.172;2023-11-21T04:19:26;3.33;;;1.10;;
7150;SDS011;3617;48.836;9.172;2023-11-21T04:21:52;1.47;;;1.13;;
7150;SDS011;3617;48.836;9.172;2023-11-21T04:24:18;1.67;;;0.90;;
7150;SDS011;3617;48.836;9.172;2023-11-21T04:26:44;1.00;;;0.90;;
7150;SDS011;3617;48.836;9.172;2023-11-21T04:29:10;1.10;;;1.00;;
7150;SDS011;3617;48.836;9.172;2023-11-21T04:31:36;0.87;;;0.80;;
7150;SDS011;3617;48.836;9.172;2023-11-21T04:34:02;1.03;;;0.90;;
7150;SDS011;3617;48.836;9.172;2023-11-21T04:36:31;1.00;;;1.00;;
7150;SDS011;3617;48.836;9.172;2023-11-21T04:38:57;4.27;;;1.00;;
7150;SDS011;3617;48.836;9.172;2023-11-21T04:41:23;2.27;;;1.37;;
7150;SDS011;3617;48.836;9.172;2023-11-21T04:43:49;0.90;;;0.90;;
7150;SDS011;3617;48.836;9.172;2023-11-21T04:46:15;1.30;;;1.20;;
7150;SDS011;3617;48.836;9.172;2023-11-21T04:48:41;1.20;;;1.10;;
7150;SDS011;3617;48.836;9.172;2023-11-21T04:51:07;1.40;;;1.30;;
7150;SDS011;3617;48.836;9.172;2023-11-21T04:53:33;1.37;;;1.13;;
7150;SDS011;3617;48.836;9.172;2023-11-21T04:56:00;0.93;;;0.93;;
7150;SDS011;3617;48.836;9.172;2023-11-21T04:58:26;1.20;;;1.00;;
7150;SDS011;3617;48.836;9.172;2023-11-21T05:00:52;2.50;;;0.77;;
7150;SDS011;3617;48.836;9.172;2023-11-21T05:03:18;0.80;;;0.80;;
7150;SDS011;3617;48.836;9.172;2023-11-21T05:05:44;1.10;;;1.07;;
7150;SDS011;3617;48.836;9.172;2023-11-21T05:08:10;1.30;;;1.20;;
7150;SDS011;3617;48.836;9.172;2023-11-21T05:10:36;18.70;;;8.73;;
7150;SDS011;3617;48.836;9.172;2023-11-21T05:13:04;10.00;;;4.53;;
7150;SDS011;3617;48.836;9.172;2023-11-21T05:15:34;9.63;;;5.03;;
7150;SDS011;3617;48.836;9.172;2023-11-21T05:18:00;18.63;;;9.10;;
7150;SDS011;3617;48.836;9.172;2023-11-21T05:20:26;9.83;;;5.20;;
7150;SDS011;3617;48.836;9.172;2023-11-21T05:22:52;10.90;;;6.90;;
7150;SDS011;3617;48.836;9.172;2023-11-21T05:25:18;12.20;;;6.90;;
7150;SDS011;3617;48.836;9.172;2023-11-21T05:27:48;12.03;;;6.90;;
7150;SDS011;3617;48.836;9.172;2023-11-21T05:30:14;11.50;;;5.43;;
7150;SDS011;3617;48.836;9.172;2023-11-21T05:32:40;6.57;;;2.97;;
7150;SDS011;3617;48.836;9.172;2023-11-21T05:35:11;4.33;;;2.83;;
7150;SDS011;3617;48.836;9.172;2023-11-21T05:37:40;4.83;;;2.43;;
7150;SDS011;3617;48.836;9.172;2023-11-21T05:40:07;3.13;;;1.90;;
7150;SDS011;3617;48.836;9.172;2023-11-21T05:42:34;1.83;;;1.40;;
7150;SDS011;3617;48.836;9.172;2023-11-21T05:45:00;2.03;;;1.40;;
7150;SDS011;3617;48.836;9.172;2023-11-21T05:47:42;1.73;;;1.47;;
7150;SDS011;3617;48.836;9.172;2023-11-21T05:50:10;1.77;;;1.27;;
7150;SDS011;3617;48.836;9.172;2023-11-21T05:52:39;2.30;;;1.30;;
7150;SDS011;3617;48.836;9.172;2023-11-21T05:55:05;3.70;;;1.50;;
7150;SDS011;3617;48.836;9.172;2023-11-21T05:57:35;2.13;;;1.93;;
7150;SDS011;3617;48.836;9.172;2023-11-21T06:00:02;1.50;;;1.30;;
7150;SDS011;3617;48.836;9.172;2023-11-21T06:02:35;3.03;;;1.40;;
7150;SDS011;3617;48.836;9.172;2023-11-21T06:05:01;1.50;;;1.40;;
7150;SDS011;3617;48.836;9.172;2023-11-21T06:07:29;1.47;;;1.03;;
7150;SDS011;3617;48.836;9.172;2023-11-21T06:09:55;1.10;;;1.00;;
7150;SDS011;3617;48.836;9.172;2023-11-21T06:12:21;1.20;;;1.10;;
7150;SDS011;3617;48.836;9.172;2023-11-21T06:14:47;1.80;;;1.17;;
7150;SDS011;3617;48.836;9.172;2023-11-21T06:17:13;0.73;;;0.73;;
7150;SDS011;3617;48.836;9.172;2023-11-21T06:19:39;1.00;;;0.90;;
7150;SDS011;3617;48.836;9.172;2023-11-21T06:22:05;2.03;;;1.30;;
7150;SDS011;3617;48.836;9.172;2023-11-21T06:24:31;1.00;;;1.00;;
7150;SDS011;3617;48.836;9.172;2023-11-21T06:26:57;1.17;;;0.90;;
7150;SDS011;3617;48.836;9.172;2023-11-21T06:29:23;0.90;;;0.90;;
7150;SDS011;3617;48.836;9.172;2023-11-21T06:31:49;2.37;;;1.17;;
7150;SDS011;3617;48.836;9.172;2023-11-21T06:34:15;7.00;;;1.17;;
7150;SDS011;3617;48.836;9.172;2023-11-21T06:36:41;1.97;;;1.27;;
7150;SDS011;3617;48.836;9.172;2023-11-21T06:39:07;1.63;;;1.27;;
7150;SDS011;3617;48.836;9.172;2023-11-21T06:41:33;1.77;;;1.30;;
7150;SDS011;3617;48.836;9.172;2023-11-21T06:43:59;1.03;;;1.00;;
7150;SDS011;3617;48.836;9.172;2023-11-21T06:46:25;1.33;;;1.23;;
7150;SDS011;3617;48.836;9.172;2023-11-21T06:48:52;1.10;;;1.03;;
7150;SDS011;3617;48.836;9.172;2023-11-21T06:51:18;2.27;;;1.60;;
7150;SDS011;3617;48.836;9.172;2023-11-21T06:53:44;1.23;;;1.13;;
7150;SDS011;3617;48.836;9.172;2023-11-21T06:56:18;3.17;;;1.57;;
7150;SDS011;3617;48.836;9.172;2023-11-21T06:58:45;1.40;;;1.30;;
7150;SDS011;3617;48.836;9.172;2023-11-21T07:01:11;1.73;;;1.40;;
7150;SDS011;3617;48.836;9.172;2023-11-21T07:03:38;1.30;;;1.20;;
7150;SDS011;3617;48.836;9.172;2023-11-21T07:06:04;3.87;;;1.87;;
7150;SDS011;3617;48.836;9.172;2023-11-21T07:08:30;2.70;;;1.47;;
7150;SDS011;3617;48.836;9.172;2023-11-21T07:10:57;1.73;;;1.40;;
7150;SDS011;3617;48.836;9.172;2023-11-21T07:13:23;2.07;;;1.40;;
7150;SDS011;3617;48.836;9.172;2023-11-21T07:15:49;4.90;;;1.60;;
7150;SDS011;3617;48.836;9.172;2023-11-21T07:18:15;1.20;;;1.10;;
7150;SDS011;3617;48.836;9.172;2023-11-21T07:20:41;1.63;;;1.40;;
7150;SDS011;3617;48.836;9.172;2023-11-21T07:23:07;1.63;;;1.30;;
7150;SDS011;3617;48.836;9.172;2023-11-21T07:25:33;1.40;;;1.20;;
7150;SDS011;3617;48.836;9.172;2023-11-21T07:27:59;1.93;;;1.27;;
7150;SDS011;3617;48.836;9.172;2023-11-21T07:30:25;2.13;;;1.57;;
7150;SDS011;3617;48.836;9.172;2023-11-21T07:32:52;2.40;;;1.50;;
7150;SDS011;3617;48.836;9.172;2023-11-21T07:35:18;2.37;;;1.73;;
7150;SDS011;3617;48.836;9.172;2023-11-21T07:37:44;2.17;;;1.70;;
7150;SDS011;3617;48.836;9.172;2023-11-21T07:40:10;4.60;;;1.93;;
7150;SDS011;3617;48.836;9.172;2023-11-21T07:42:36;2.20;;;1.90;;
7150;SDS011;3617;48.836;9.172;2023-11-21T07:45:03;3.00;;;1.70;;
7150;SDS011;3617;48.836;9.172;2023-11-21T07:47:29;3.17;;;2.17;;
7150;SDS011;3617;48.836;9.172;2023-11-21T07:49:55;4.40;;;2.47;;
7150;SDS011;3617;48.836;9.172;2023-11-21T07:52:21;2.80;;;2.40;;
7150;SDS011;3617;48.836;9.172;2023-11-21T07:54:48;3.33;;;1.93;;
7150;SDS011;3617;48.836;9.172;2023-11-21T07:57:14;2.60;;;2.10;;
7150;SDS011;3617;48.836;9.172;2023-11-21T07:59:40;1.73;;;1.33;;
7150;SDS011;3617;48.836;9.172;2023-11-21T08:02:06;1.70;;;1.43;;
7150;SDS011;3617;48.836;9.172;2023-11-21T08:04:32;2.03;;;1.43;;
7150;SDS011;3617;48.836;9.172;2023-11-21T08:07:00;1.93;;;1.60;;
7150;SDS011;3617;48.836;9.172;2023-11-21T08:09:26;1.20;;;1.10;;
7150;SDS011;3617;48.836;9.172;2023-11-21T08:11:52;1.23;;;1.10;;
7150;SDS011;3617;48.836;9.172;2023-11-21T08:14:18;1.67;;;1.40;;
7150;SDS011;3617;48.836;9.172;2023-11-21T08:16:45;1.70;;;1.33;;
7150;SDS011;3617;48.836;9.172;2023-11-21T08:19:12;1.40;;;1.30;;
7150;SDS011;3617;48.836;9.172;2023-11-21T08:21:38;1.67;;;1.57;;
7150;SDS011;3617;48.836;9.172;2023-11-21T08:24:05;1.70;;;1.40;;
7150;SDS011;3617;48.836;9.172;2023-11-21T08:26:35;1.90;;;1.50;;
7150;SDS011;3617;48.836;9.172;2023-11-21T08:29:01;2.20;;;1.50;;
7150;SDS011;3617;48.836;9.172;2023-11-21T08:31:27;2.40;;;1.57;;
7150;SDS011;3617;48.836;9.172;2023-11-21T08:33:54;2.10;;;1.77;;
7150;SDS011;3617;48.836;9.172;2023-11-21T08:36:20;2.10;;;1.80;;
7150;SDS011;3617;48.836;9.172;2023-11-21T08:38:47;5.03;;;1.60;;
7150;SDS011;3617;48.836;9.172;2023-11-21T08:41:14;2.60;;;1.83;;
7150;SDS011;3617;48.836;9.172;2023-11-21T08:43:41;1.53;;;1.43;;
7150;SDS011;3617;48.836;9.172;2023-11-21T08:46:07;2.10;;;1.57;;
7150;SDS011;3617;48.836;9.172;2023-11-21T08:48:36;3.40;;;1.40;;
7150;SDS011;3617;48.836;9.172;2023-11-21T08:51:03;1.63;;;1.30;;
7150;SDS011;3617;48.836;9.172;2023-11-21T08:53:29;1.73;;;1.50;;
7150;SDS011;3617;48.836;9.172;2023-11-21T08:55:56;2.03;;;1.53;;
7150;SDS011;3617;48.836;9.172;2023-11-21T08:58:22;2.27;;;1.77;;
7150;SDS011;3617;48.836;9.172;2023-11-21T09:00:48;1.63;;;1.10;;
7150;SDS011;3617;48.836;9.172;2023-11-21T09:03:14;1.83;;;1.40;;
7150;SDS011;3617;48.836;9.172;2023-11-21T09:05:40;1.93;;;1.00;;
7150;SDS011;3617;48.836;9.172;2023-11-21T09:08:06;1.20;;;1.10;;
7150;SDS011;3617;48.836;9.172;2023-11-21T09:10:35;1.30;;;1.20;;
7150;SDS011;3617;48.836;9.172;2023-11-21T09:13:01;1.83;;;1.20;;
7150;SDS011;3617;48.836;9.172;2023-11-21T09:15:27;1.30;;;1.00;;
7150;SDS011;3617;48.836;9.172;2023-11-21T09:17:53;1.30;;;1.20;;
7150;SDS011;3617;48.836;9.172;2023-11-21T09:20:21;1.20;;;1.00;;
7150;SDS011;3617;48.836;9.172;2023-11-21T09:22:48;1.30;;;1.20;;
7150;SDS011;3617;48.836;9.172;2023-11-21T09:25:14;1.13;;;1.00;;
7150;SDS011;3617;48.836;9.172;2023-11-21T09:27:40;0.97;;;0.97;;
7150;SDS011;3617;48.836;9.172;2023-11-21T09:30:06;0.80;;;0.80;;
7150;SDS011;3617;48.836;9.172;2023-11-21T09:32:35;1.20;;;1.10;;
7150;SDS011;3617;48.836;9.172;2023-11-21T09:35:02;1.70;;;1.27;;
7150;SDS011;3617;48.836;9.172;2023-11-21T09:37:28;1.17;;;1.07;;
7150;SDS011;3617;48.836;9.172;2023-11-21T09:39:54;1.97;;;1.30;;
7150;SDS011;3617;48.836;9.172;2023-11-21T09:42:23;0.97;;;0.93;;
7150;SDS011;3617;48.836;9.172;2023-11-21T09:47:21;1.20;;;1.10;;
7150;SDS011;3617;48.836;9.172;2023-11-21T09:49:48;3.53;;;1.20;;
7150;SDS011;3617;48.836;9.172;2023-11-21T09:52:27;1.50;;;1.20;;
7150;SDS011;3617;48.836;9.172;2023-11-21T09:54:54;1.20;;;1.10;;
7150;SDS011;3617;48.836;9.172;2023-11-21T09:57:22;1.20;;;1.10;;
7150;SDS011;3617;48.836;9.172;2023-11-21T09:59:51;1.40;;;1.30;;
7150;SDS011;3617;48.836;9.172;2023-11-21T10:02:22;1.40;;;1.30;;
7150;SDS011;3617;48.836;9.172;2023-11-21T10:04:51;1.17;;;1.00;;
7150;SDS011;3617;48.836;9.172;2023-11-21T10:07:17;1.20;;;1.10;;
7150;SDS011;3617;48.836;9.172;2023-11-21T10:09:43;1.07;;;0.97;;
7150;SDS011;3617;48.836;9.172;2023-11-21T10:12:09;1.30;;;1.20;;
7150;SDS011;3617;48.836;9.172;2023-11-21T10:14:37;5.20;;;1.27;;
7150;SDS011;3617;48.836;9.172;2023-11-21T10:17:03;1.20;;;1.10;;
7150;SDS011;3617;48.836;9.172;2023-11-21T10:19:33;1.83;;;1.30;;
7150;SDS011;3617;48.836;9.172;2023-11-21T10:22:01;0.80;;;0.80;;
7150;SDS011;3617;48.836;9.172;2023-11-21T10:24:28;0.90;;;0.90;;
7150;SDS011;3617;48.836;9.172;2023-11-21T10:26:54;1.07;;;1.00;;
7150;SDS011;3617;48.836;9.172;2023-11-21T10:29:20;1.03;;;0.93;;
7150;SDS011;3617;48.836;9.172;2023-11-21T10:31:49;0.93;;;0.93;;
7150;SDS011;3617;48.836;9.172;2023-11-21T10:36:41;1.00;;;0.90;;
7150;SDS011;3617;48.836;9.172;2023-11-21T10:39:07;1.13;;;1.00;;
7150;SDS011;3617;48.836;9.172;2023-11-21T10:41:34;1.97;;;1.37;;
7150;SDS011;3617;48.836;9.172;2023-11-21T10:44:01;1.10;;;0.97;;
7150;SDS011;3617;48.836;9.172;2023-11-21T10:46:32;1.43;;;1.20;;
7150;SDS011;3617;48.836;9.172;2023-11-21T10:48:59;0.80;;;0.80;;
7150;SDS011;3617;48.836;9.172;2023-11-21T10:51:25;1.00;;;0.90;;
7150;SDS011;3617;48.836;9.172;2023-11-21T10:53:51;1.10;;;1.00;;
7150;SDS011;3617;48.836;9.172;2023-11-21T10:56:18;1.20;;;1.10;;
7150;SDS011;3617;48.836;9.172;2023-11-21T10:58:46;1.77;;;1.40;;
7150;SDS011;3617;48.836;9.172;2023-11-21T11:01:14;1.30;;;1.20;;
7150;SDS011;3617;48.836;9.172;2023-11-21T11:03:42;1.33;;;1.23;;
7150;SDS011;3617;48.836;9.172;2023-11-21T11:06:08;1.60;;;1.00;;
7150;SDS011;3617;48.836;9.172;2023-11-21T11:08:36;1.63;;;1.10;;
7150;SDS011;3617;48.836;9.172;2023-11-21T11:11:02;1.10;;;1.00;;
7150;SDS011;3617;48.836;9.172;2023-11-21T11:13:28;3.47;;;1.20;;
7150;SDS011;3617;48.836;9.172;2023-11-21T11:15:57;1.20;;;1.10;;
7150;SDS011;3617;48.836;9.172;2023-11-21T11:18:30;1.30;;;1.20;;
7150;SDS011;3617;48.836;9.172;2023-11-21T11:21:07;1.60;;;1.30;;
7150;SDS011;3617;48.836;9.172;2023-11-21T11:29:10;1.30;;;1.20;;
7150;SDS011;3617;48.836;9.172;2023-11-21T11:31:49;2.00;;;1.40;;
7150;SDS011;3617;48.836;9.172;2023-11-21T11:36:49;1.20;;;1.10;;
7150;SDS011;3617;48.836;9.172;2023-11-21T11:39:28;1.20;;;1.10;;
7150;SDS011;3617;48.836;9.172;2023-11-21T11:41:55;2.40;;;1.20;;
7150;SDS011;3617;48.836;9.172;2023-11-21T11:47:14;1.83;;;1.50;;
7150;SDS011;3617;48.836;9.172;2023-11-21T11:52:31;2.03;;;1.77;;
7150;SDS011;3617;48.836;9.172;2023-11-21T11:54:59;1.00;;;1.00;;
7150;SDS011;3617;48.836;9.172;2023-11-21T11:57:25;1.10;;;1.00;;
7150;SDS011;3617;48.836;9.172;2023-11-21T12:02:53;1.50;;;1.37;;
7150;SDS011;3617;48.836;9.172;2023-11-21T12:05:20;1.60;;;1.20;;
7150;SDS011;3617;48.836;9.172;2023-11-21T12:10:13;1.07;;;1.03;;
7150;SDS011;3617;48.836;9.172;2023-11-21T12:12:43;1.50;;;1.30;;
7150;SDS011;3617;48.836;9.172;2023-11-21T12:15:10;3.53;;;1.50;;
7150;SDS011;3617;48.836;9.172;2023-11-21T12:17:37;1.43;;;1.33;;
7150;SDS011;3617;48.836;9.172;2023-11-21T12:20:04;1.43;;;1.33;;
7150;SDS011;3617;48.836;9.172;2023-11-21T12:22:31;2.10;;;1.40;;
7150;SDS011;3617;48.836;9.172;2023-11-21T12:24:57;1.50;;;1.20;;
7150;SDS011;3617;48.836;9.172;2023-11-21T12:27:23;2.70;;;1.50;;
7150;SDS011;3617;48.836;9.172;2023-11-21T12:29:49;1.60;;;1.50;;
7150;SDS011;3617;48.836;9.172;2023-11-21T12:32:15;1.80;;;1.60;;
7150;SDS011;3617;48.836;9.172;2023-11-21T12:34:43;2.00;;;1.60;;
7150;SDS011;3617;48.836;9.172;2023-11-21T12:37:09;1.30;;;1.20;;
7150;SDS011;3617;48.836;9.172;2023-11-21T12:39:35;1.20;;;1.10;;
7150;SDS011;3617;48.836;9.172;2023-11-21T12:42:01;1.40;;;1.30;;
7150;SDS011;3617;48.836;9.172;2023-11-21T12:44:27;1.83;;;1.10;;
7150;SDS011;3617;48.836;9.172;2023-11-21T12:46:54;1.17;;;1.00;;
7150;SDS011;3617;48.836;9.172;2023-11-21T12:49:20;1.57;;;1.30;;
7150;SDS011;3617;48.836;9.172;2023-11-21T12:51:47;0.80;;;0.80;;
7150;SDS011;3617;48.836;9.172;2023-11-21T12:54:13;1.10;;;1.00;;
7150;SDS011;3617;48.836;9.172;2023-11-21T12:56:40;0.77;;;0.77;;
7150;SDS011;3617;48.836;9.172;2023-11-21T12:59:06;0.93;;;0.90;;
7150;SDS011;3617;48.836;9.172;2023-11-21T13:01:36;1.00;;;1.00;;
7150;SDS011;3617;48.836;9.172;2023-11-21T13:04:02;0.80;;;0.80;;
7150;SDS011;3617;48.836;9.172;2023-11-21T13:06:29;1.37;;;1.00;;
7150;SDS011;3617;48.836;9.172;2023-11-21T13:09:01;1.13;;;0.93;;
7150;SDS011;3617;48.836;9.172;2023-11-21T13:11:30;1.97;;;1.20;;
7150;SDS011;3617;48.836;9.172;2023-11-21T13:13:59;1.00;;;0.90;;
7150;SDS011;3617;48.836;9.172;2023-11-21T13:16:25;1.60;;;1.00;;
7150;SDS011;3617;48.836;9.172;2023-11-21T13:18:52;2.50;;;1.30;;
7150;SDS011;3617;48.836;9.172;2023-11-21T13:21:18;2.20;;;1.13;;
7150;SDS011;3617;48.836;9.172;2023-11-21T13:23:47;0.90;;;0.90;;
7150;SDS011;3617;48.836;9.172;2023-11-21T13:26:15;1.60;;;0.93;;
7150;SDS011;3617;48.836;9.172;2023-11-21T13:28:42;1.10;;;1.00;;
7150;SDS011;3617;48.836;9.172;2023-11-21T13:31:11;1.30;;;1.13;;
7150;SDS011;3617;48.836;9.172;2023-11-21T13:33:47;0.90;;;0.90;;
7150;SDS011;3617;48.836;9.172;2023-11-21T13:36:30;1.20;;;1.10;;
7150;SDS011;3617;48.836;9.172;2023-11-21T13:38:58;1.30;;;1.20;;
7150;SDS011;3617;48.836;9.172;2023-11-21T13:41:29;1.30;;;1.20;;
7150;SDS011;3617;48.836;9.172;2023-11-21T13:43:56;1.37;;;1.27;;
7150;SDS011;3617;48.836;9.172;2023-11-21T13:46:40;1.30;;;1.20;;
7150;SDS011;3617;48.836;9.172;2023-11-21T13:49:06;1.50;;;1.40;;
7150;SDS011;3617;48.836;9.172;2023-11-21T13:51:35;1.67;;;1.40;;
7150;SDS011;3617;48.836;9.172;2023-11-21T13:54:09;2.83;;;1.40;;
7150;SDS011;3617;48.836;9.172;2023-11-21T13:56:36;1.67;;;1.37;;
7150;SDS011;3617;48.836;9.172;2023-11-21T13:59:03;1.33;;;1.20;;
7150;SDS011;3617;48.836;9.172;2023-11-21T14:01:41;2.10;;;1.27;;
7150;SDS011;3617;48.836;9.172;2023-11-21T14:04:19;1.30;;;1.20;;
7150;SDS011;3617;48.836;9.172;2023-11-21T14:06:59;1.20;;;1.10;;
7150;SDS011;3617;48.836;9.172;2023-11-21T14:09:36;1.67;;;1.50;;
7150;SDS011;3617;48.836;9.172;2023-11-21T14:12:08;1.30;;;1.17;;
7150;SDS011;3617;48.836;9.172;2023-11-21T14:14:35;1.37;;;1.20;;
7150;SDS011;3617;48.836;9.172;2023-11-21T14:17:02;1.30;;;1.20;;
7150;SDS011;3617;48.836;9.172;2023-11-21T14:19:31;1.23;;;1.10;;
7150;SDS011;3617;48.836;9.172;2023-11-21T14:21:58;1.20;;;1.10;;
7150;SDS011;3617;48.836;9.172;2023-11-21T14:24:24;1.30;;;1.20;;
7150;SDS011;3617;48.836;9.172;2023-11-21T14:26:50;1.00;;;0.90;;
7150;SDS011;3617;48.836;9.172;2023-11-21T14:29:18;1.10;;;1.10;;
7150;SDS011;3617;48.836;9.172;2023-11-21T14:31:45;1.50;;;1.40;;
7150;SDS011;3617;48.836;9.172;2023-11-21T14:34:11;1.30;;;1.20;;
7150;SDS011;3617;48.836;9.172;2023-11-21T14:36:38;2.03;;;1.20;;
7150;SDS011;3617;48.836;9.172;2023-11-21T14:39:05;1.40;;;1.20;;
7150;SDS011;3617;48.836;9.172;2023-11-21T14:41:34;1.20;;;1.10;;
7150;SDS011;3617;48.836;9.172;2023-11-21T14:44:03;2.27;;;1.50;;
7150;SDS011;3617;48.836;9.172;2023-11-21T14:46:32;1.60;;;1.33;;
7150;SDS011;3617;48.836;9.172;2023-11-21T14:49:00;1.63;;;1.23;;
7150;SDS011;3617;48.836;9.172;2023-11-21T14:51:43;1.50;;;1.30;;
7150;SDS011;3617;48.836;9.172;2023-11-21T14:54:28;2.37;;;1.40;;
7150;SDS011;3617;48.836;9.172;2023-11-21T14:57:10;1.50;;;1.40;;
7150;SDS011;3617;48.836;9.172;2023-11-21T14:59:42;1.83;;;1.27;;
7150;SDS011;3617;48.836;9.172;2023-11-21T15:02:09;2.17;;;1.53;;
7150;SDS011;3617;48.836;9.172;2023-11-21T15:04:42;2.70;;;1.40;;
7150;SDS011;3617;48.836;9.172;2023-11-21T15:07:09;2.77;;;1.60;;
7150;SDS011;3617;48.836;9.172;2023-11-21T15:09:36;1.63;;;1.50;;
7150;SDS011;3617;48.836;9.172;2023-11-21T15:12:10;1.30;;;1.20;;
7150;SDS011;3617;48.836;9.172;2023-11-21T15:17:08;2.60;;;1.70;;
7150;SDS011;3617;48.836;9.172;2023-11-21T15:19:34;2.73;;;2.03;;
7150;SDS011;3617;48.836;9.172;2023-11-21T15:22:01;2.13;;;1.73;;
7150;SDS011;3617;48.836;9.172;2023-11-21T15:24:27;2.00;;;1.80;;
7150;SDS011;3617;48.836;9.172;2023-11-21T15:26:53;1.63;;;1.47;;
7150;SDS011;3617;48.836;9.172;2023-11-21T15:29:19;4.50;;;1.90;;
7150;SDS011;3617;48.836;9.172;2023-11-21T15:31:46;1.80;;;1.60;;
7150;SDS011;3617;48.836;9.172;2023-11-21T15:34:14;2.53;;;1.73;;
7150;SDS011;3617;48.836;9.172;2023-11-21T15:36:40;2.40;;;1.67;;
7150;SDS011;3617;48.836;9.172;2023-11-21T15:39:06;2.60;;;1.77;;
7150;SDS011;3617;48.836;9.172;2023-11-21T15:41:39;1.97;;;1.77;;
7150;SDS011;3617;48.836;9.172;2023-11-21T15:44:06;2.70;;;1.90;;
7150;SDS011;3617;48.836;9.172;2023-11-21T15:46:36;1.80;;;1.70;;
7150;SDS011;3617;48.836;9.172;2023-11-21T15:49:04;2.17;;;1.60;;
7150;SDS011;3617;48.836;9.172;2023-11-21T15:51:37;2.03;;;1.67;;
7150;SDS011;3617;48.836;9.172;2023-11-21T15:54:03;2.07;;;1.67;;
7150;SDS011;3617;48.836;9.172;2023-11-21T15:56:29;3.00;;;2.00;;
7150;SDS011;3617;48.836;9.172;2023-11-21T15:58:55;3.47;;;2.10;;
7150;SDS011;3617;48.836;9.172;2023-11-21T16:01:21;3.53;;;2.23;;
7150;SDS011;3617;48.836;9.172;2023-11-21T16:03:47;3.27;;;1.90;;